createdAt,value
2019-03-17T00:00:39.144Z,11.22
2019-03-17T00:01:39.157Z,11.32
2019-03-17T00:02:39.167Z,11.25
2019-03-17T00:03:39.179Z,11.26
2019-03-17T00:04:39.183Z,11.26
2019-03-17T00:05:39.211Z,11.26
2019-03-17T00:06:39.359Z,11.35
2019-03-17T00:07:39.237Z,11.32
2019-03-17T00:08:39.335Z,11.32
2019-03-17T00:09:39.270Z,11.27
2019-03-17T00:10:39.412Z,11.30
2019-03-17T00:11:39.290Z,11.43
2019-03-17T00:12:39.307Z,11.45
2019-03-17T00:13:39.322Z,11.25
2019-03-17T00:14:39.336Z,11.32
2019-03-17T00:15:39.343Z,11.29
2019-03-17T00:16:39.368Z,11.33
2019-03-17T00:17:41.759Z,11.44
2019-03-17T00:18:39.382Z,11.33
2019-03-17T00:19:39.398Z,11.32
2019-03-17T00:20:39.412Z,11.35
2019-03-17T00:21:39.420Z,11.33
2019-03-17T00:22:39.431Z,11.30
2019-03-17T00:23:39.457Z,11.33
2019-03-17T00:24:39.473Z,11.41
2019-03-17T00:25:39.481Z,11.37
2019-03-17T00:26:39.489Z,11.45
2019-03-17T00:27:39.503Z,11.36
2019-03-17T00:28:39.517Z,11.40
2019-03-17T00:29:39.527Z,11.47
2019-03-17T00:30:39.539Z,11.60
2019-03-17T00:31:39.557Z,11.52
2019-03-17T00:32:39.569Z,11.57
2019-03-17T00:33:39.585Z,11.62
2019-03-17T00:34:44.300Z,11.68
2019-03-17T00:35:39.605Z,11.68
2019-03-17T00:36:39.623Z,11.75
2019-03-17T00:37:39.637Z,11.66
2019-03-17T00:38:39.652Z,11.63
2019-03-17T00:39:39.663Z,11.68
2019-03-17T00:40:39.685Z,11.65
2019-03-17T00:41:39.693Z,11.60
2019-03-17T00:42:39.704Z,11.75
2019-03-17T00:43:39.710Z,11.62
2019-03-17T00:44:39.733Z,11.75
2019-03-17T00:45:39.767Z,11.65
2019-03-17T00:46:39.771Z,11.72
2019-03-17T00:47:39.772Z,11.72
2019-03-17T00:48:39.781Z,11.69
2019-03-17T00:49:39.827Z,11.69
2019-03-17T00:50:39.813Z,11.63
2019-03-17T00:51:39.838Z,11.81
2019-03-17T00:52:39.840Z,11.75
2019-03-17T00:53:39.856Z,11.75
2019-03-17T00:54:39.868Z,11.78
2019-03-17T00:55:39.881Z,11.70
2019-03-17T00:56:39.896Z,11.70
2019-03-17T00:57:39.899Z,11.80
2019-03-17T00:58:39.921Z,11.70
2019-03-17T00:59:39.939Z,11.73
2019-03-17T01:00:39.950Z,11.70
2019-03-17T01:01:39.960Z,11.75
2019-03-17T01:02:39.972Z,11.77
2019-03-17T01:03:39.986Z,11.87
2019-03-17T01:04:40.002Z,11.77
2019-03-17T01:05:40.020Z,11.72
2019-03-17T01:06:40.026Z,11.81
2019-03-17T01:07:40.040Z,11.73
2019-03-17T01:08:40.050Z,11.75
2019-03-17T01:09:40.068Z,11.75
2019-03-17T01:10:40.079Z,11.73
2019-03-17T01:11:40.096Z,11.77
2019-03-17T01:12:40.108Z,11.78
2019-03-17T01:13:40.122Z,11.77
2019-03-17T01:14:40.163Z,11.75
2019-03-17T01:15:40.152Z,11.83
2019-03-17T01:16:40.169Z,11.86
2019-03-17T01:17:40.178Z,11.77
2019-03-17T01:18:40.182Z,11.72
2019-03-17T01:19:40.201Z,11.80
2019-03-17T01:20:40.222Z,11.70
2019-03-17T01:21:40.233Z,11.86
2019-03-17T01:22:40.242Z,11.70
2019-03-17T01:23:40.254Z,11.83
2019-03-17T01:24:40.270Z,11.77
2019-03-17T01:25:40.288Z,11.75
2019-03-17T01:26:40.298Z,11.73
2019-03-17T01:27:40.310Z,11.73
2019-03-17T01:28:40.328Z,11.73
2019-03-17T01:29:40.340Z,11.72
2019-03-17T01:30:40.352Z,11.83
2019-03-17T01:31:40.366Z,11.87
2019-03-17T01:32:40.382Z,11.86
2019-03-17T01:33:40.392Z,11.83
2019-03-17T01:34:40.405Z,11.70
2019-03-17T01:35:40.423Z,11.70
2019-03-17T01:36:40.431Z,11.77
2019-03-17T01:37:40.447Z,11.75
2019-03-17T01:38:40.459Z,11.66
2019-03-17T01:39:40.469Z,11.66
2019-03-17T01:40:40.488Z,11.80
2019-03-17T01:41:40.499Z,11.78
2019-03-17T01:42:40.520Z,11.72
2019-03-17T01:43:40.524Z,11.69
2019-03-17T01:44:40.541Z,11.68
2019-03-17T01:45:40.558Z,11.73
2019-03-17T01:46:40.572Z,11.69
2019-03-17T01:47:40.590Z,11.73
2019-03-17T01:48:40.599Z,11.62
2019-03-17T01:49:40.608Z,11.63
2019-03-17T01:50:40.617Z,11.70
2019-03-17T01:51:40.639Z,11.77
2019-03-17T01:52:40.648Z,11.75
2019-03-17T01:53:40.678Z,11.75
2019-03-17T01:54:40.675Z,11.80
2019-03-17T01:55:40.691Z,11.73
2019-03-17T01:56:40.704Z,11.69
2019-03-17T01:57:40.715Z,11.73
2019-03-17T01:58:40.725Z,11.73
2019-03-17T01:59:40.747Z,11.73
2019-03-17T02:00:40.755Z,11.73
2019-03-17T02:01:40.769Z,11.75
2019-03-17T02:02:40.790Z,11.80
2019-03-17T02:03:40.793Z,11.68
2019-03-17T02:04:40.811Z,11.68
2019-03-17T02:05:40.813Z,11.70
2019-03-17T02:06:40.833Z,11.63
2019-03-17T02:07:41.015Z,11.68
2019-03-17T02:08:40.864Z,11.73
2019-03-17T02:09:40.880Z,11.68
2019-03-17T02:10:40.894Z,11.65
2019-03-17T02:11:40.977Z,11.60
2019-03-17T02:12:40.921Z,11.57
2019-03-17T02:13:40.948Z,11.52
2019-03-17T02:14:40.944Z,11.62
2019-03-17T02:15:40.996Z,11.70
2019-03-17T02:16:40.974Z,11.63
2019-03-17T02:17:41.000Z,11.68
2019-03-17T02:18:41.006Z,11.63
2019-03-17T02:19:41.008Z,11.66
2019-03-17T02:20:41.027Z,11.63
2019-03-17T02:21:41.040Z,11.59
2019-03-17T02:22:41.049Z,11.63
2019-03-17T02:23:41.064Z,11.65
2019-03-17T02:24:41.079Z,11.52
2019-03-17T02:25:41.115Z,11.52
2019-03-17T02:26:41.107Z,11.45
2019-03-17T02:27:41.119Z,11.50
2019-03-17T02:28:41.137Z,11.48
2019-03-17T02:29:41.145Z,11.51
2019-03-17T02:30:41.157Z,11.51
2019-03-17T02:31:41.175Z,11.44
2019-03-17T02:32:41.187Z,11.47
2019-03-17T02:33:41.201Z,11.41
2019-03-17T02:34:41.215Z,11.40
2019-03-17T02:35:41.230Z,11.37
2019-03-17T02:36:41.236Z,11.41
2019-03-17T02:37:41.265Z,11.37
2019-03-17T02:38:41.301Z,11.35
2019-03-17T02:39:41.278Z,11.36
2019-03-17T02:40:41.297Z,11.33
2019-03-17T02:41:41.306Z,11.32
2019-03-17T02:42:41.319Z,11.33
2019-03-17T02:43:41.339Z,11.35
2019-03-17T02:44:41.334Z,11.33
2019-03-17T02:45:41.373Z,11.29
2019-03-17T02:46:41.515Z,11.30
2019-03-17T02:47:41.390Z,11.32
2019-03-17T02:48:41.421Z,11.26
2019-03-17T02:49:41.416Z,11.32
2019-03-17T02:50:41.432Z,11.29
2019-03-17T02:51:41.439Z,11.37
2019-03-17T02:52:41.469Z,11.32
2019-03-17T02:53:41.467Z,11.30
2019-03-17T02:54:41.485Z,11.36
2019-03-17T02:55:41.493Z,11.26
2019-03-17T02:56:41.578Z,11.33
2019-03-17T02:57:41.525Z,11.37
2019-03-17T02:58:41.546Z,11.33
2019-03-17T02:59:41.546Z,11.30
2019-03-17T03:00:41.568Z,11.33
2019-03-17T03:01:41.571Z,11.36
2019-03-17T03:02:41.593Z,11.33
2019-03-17T03:03:41.599Z,11.30
2019-03-17T03:04:41.630Z,11.35
2019-03-17T03:05:53.905Z,11.35
2019-03-17T03:06:41.641Z,11.29
2019-03-17T03:07:41.656Z,11.33
2019-03-17T03:08:41.677Z,11.36
2019-03-17T03:09:41.682Z,11.37
2019-03-17T03:10:41.701Z,11.30
2019-03-17T03:11:41.718Z,11.30
2019-03-17T03:12:41.723Z,11.27
2019-03-17T03:13:41.733Z,11.33
2019-03-17T03:14:41.746Z,11.27
2019-03-17T03:15:41.771Z,11.37
2019-03-17T03:16:41.769Z,11.35
2019-03-17T03:17:41.789Z,11.37
2019-03-17T03:18:41.799Z,11.27
2019-03-17T03:19:41.821Z,11.30
2019-03-17T03:20:41.827Z,11.27
2019-03-17T03:21:41.843Z,11.30
2019-03-17T03:22:41.851Z,11.26
2019-03-17T03:23:41.874Z,11.29
2019-03-17T03:24:41.879Z,11.32
2019-03-17T03:25:41.895Z,11.29
2019-03-17T03:26:41.906Z,11.27
2019-03-17T03:27:41.920Z,11.33
2019-03-17T03:28:41.938Z,11.27
2019-03-17T03:29:41.951Z,11.30
2019-03-17T03:30:41.972Z,11.25
2019-03-17T03:31:41.977Z,11.25
2019-03-17T03:32:42.010Z,11.26
2019-03-17T03:33:42.007Z,11.23
2019-03-17T03:34:42.016Z,11.22
2019-03-17T03:35:42.031Z,11.27
2019-03-17T03:36:42.049Z,11.15
2019-03-17T03:37:42.056Z,11.14
2019-03-17T03:38:42.070Z,11.12
2019-03-17T03:39:42.079Z,11.22
2019-03-17T03:40:42.109Z,11.14
2019-03-17T03:41:42.107Z,11.23
2019-03-17T03:42:42.128Z,11.17
2019-03-17T03:43:42.136Z,11.15
2019-03-17T03:44:42.146Z,11.19
2019-03-17T03:45:42.164Z,11.17
2019-03-17T03:46:42.170Z,11.14
2019-03-17T03:47:42.250Z,11.12
2019-03-17T03:48:42.204Z,11.14
2019-03-17T03:49:42.209Z,11.11
2019-03-17T03:50:42.229Z,11.12
2019-03-17T03:51:42.247Z,11.14
2019-03-17T03:52:42.255Z,11.17
2019-03-17T03:53:42.266Z,11.12
2019-03-17T03:54:42.278Z,11.17
2019-03-17T03:55:42.574Z,11.12
2019-03-17T03:56:42.305Z,11.08
2019-03-17T03:57:42.326Z,11.07
2019-03-17T03:58:42.333Z,11.10
2019-03-17T03:59:42.340Z,11.17
2019-03-17T04:00:42.354Z,11.18
2019-03-17T04:01:42.377Z,11.15
2019-03-17T04:02:42.383Z,11.12
2019-03-17T04:03:42.392Z,11.11
2019-03-17T04:04:42.402Z,11.08
2019-03-17T04:05:42.420Z,11.08
2019-03-17T04:06:42.433Z,11.14
2019-03-17T04:07:42.452Z,11.10
2019-03-17T04:08:42.462Z,11.04
2019-03-17T04:09:42.477Z,11.00
2019-03-17T04:10:42.497Z,11.10
2019-03-17T04:11:42.506Z,11.05
2019-03-17T04:12:42.524Z,10.99
2019-03-17T04:13:42.527Z,10.96
2019-03-17T04:14:42.542Z,10.94
2019-03-17T04:15:42.551Z,10.99
2019-03-17T04:16:42.568Z,10.93
2019-03-17T04:17:42.583Z,10.97
2019-03-17T04:18:42.595Z,10.92
2019-03-17T04:19:42.614Z,10.99
2019-03-17T04:20:42.625Z,10.86
2019-03-17T04:21:42.636Z,10.92
2019-03-17T04:22:42.649Z,10.92
2019-03-17T04:23:42.659Z,10.92
2019-03-17T04:24:42.672Z,11.00
2019-03-17T04:25:42.679Z,10.96
2019-03-17T04:26:42.701Z,10.90
2019-03-17T04:27:42.731Z,11.02
2019-03-17T04:28:42.730Z,10.96
2019-03-17T04:29:42.738Z,10.97
2019-03-17T04:30:42.760Z,10.97
2019-03-17T04:31:42.765Z,10.97
2019-03-17T04:32:42.776Z,10.97
2019-03-17T04:33:42.789Z,10.89
2019-03-17T04:34:42.800Z,10.96
2019-03-17T04:35:42.818Z,10.94
2019-03-17T04:36:42.830Z,10.89
2019-03-17T04:37:42.842Z,10.90
2019-03-17T04:38:43.989Z,10.93
2019-03-17T04:39:42.873Z,10.89
2019-03-17T04:40:42.877Z,10.92
2019-03-17T04:41:42.885Z,10.97
2019-03-17T04:42:42.909Z,10.94
2019-03-17T04:43:42.919Z,10.93
2019-03-17T04:44:42.923Z,10.92
2019-03-17T04:45:42.975Z,10.93
2019-03-17T04:46:42.974Z,10.93
2019-03-17T04:47:42.991Z,10.87
2019-03-17T04:48:42.998Z,10.87
2019-03-17T04:49:42.997Z,10.84
2019-03-17T04:50:43.011Z,10.84
2019-03-17T04:51:43.041Z,10.90
2019-03-17T04:52:43.035Z,10.87
2019-03-17T04:53:43.071Z,10.94
2019-03-17T04:54:43.066Z,10.92
2019-03-17T04:55:43.074Z,10.94
2019-03-17T04:56:43.090Z,10.97
2019-03-17T04:57:43.103Z,10.92
2019-03-17T04:58:43.115Z,10.84
2019-03-17T04:59:43.129Z,10.92
2019-03-17T05:00:43.141Z,10.92
2019-03-17T05:01:43.159Z,10.99
2019-03-17T05:02:43.167Z,10.97
2019-03-17T05:03:43.180Z,10.86
2019-03-17T05:04:43.195Z,10.84
2019-03-17T05:05:43.207Z,11.00
2019-03-17T05:06:52.059Z,10.86
2019-03-17T05:07:43.231Z,10.97
2019-03-17T05:08:43.247Z,11.00
2019-03-17T05:09:43.260Z,10.99
2019-03-17T05:10:43.268Z,10.97
2019-03-17T05:11:43.366Z,10.94
2019-03-17T05:12:43.299Z,10.92
2019-03-17T05:13:43.311Z,10.99
2019-03-17T05:14:43.321Z,10.92
2019-03-17T05:15:43.337Z,10.99
2019-03-17T05:16:43.347Z,10.89
2019-03-17T05:17:43.363Z,11.00
2019-03-17T05:18:43.379Z,10.92
2019-03-17T05:19:43.390Z,10.92
2019-03-17T05:20:43.392Z,11.05
2019-03-17T05:21:43.437Z,10.96
2019-03-17T05:22:44.281Z,11.00
2019-03-17T05:23:43.436Z,11.02
2019-03-17T05:24:43.544Z,11.02
2019-03-17T05:25:43.466Z,11.00
2019-03-17T05:26:43.492Z,11.00
2019-03-17T05:27:43.494Z,10.94
2019-03-17T05:28:43.510Z,10.99
2019-03-17T05:29:43.516Z,10.97
2019-03-17T05:30:43.531Z,10.93
2019-03-17T05:31:43.546Z,10.92
2019-03-17T05:32:43.564Z,10.97
2019-03-17T05:33:43.568Z,10.99
2019-03-17T05:34:43.585Z,11.04
2019-03-17T05:35:43.599Z,11.04
2019-03-17T05:36:43.614Z,10.92
2019-03-17T05:37:43.619Z,10.99
2019-03-17T05:38:43.639Z,10.97
2019-03-17T05:39:43.652Z,10.97
2019-03-17T05:40:43.663Z,10.96
2019-03-17T05:41:43.674Z,10.99
2019-03-17T05:42:43.684Z,11.02
2019-03-17T05:43:43.705Z,10.86
2019-03-17T05:44:43.709Z,10.89
2019-03-17T05:45:43.725Z,10.90
2019-03-17T05:46:43.737Z,10.99
2019-03-17T05:47:43.753Z,10.99
2019-03-17T05:48:43.761Z,10.99
2019-03-17T05:49:43.778Z,10.93
2019-03-17T05:50:43.793Z,10.96
2019-03-17T05:51:43.807Z,10.94
2019-03-17T05:52:43.819Z,10.93
2019-03-17T05:53:43.830Z,10.84
2019-03-17T05:54:43.842Z,10.81
2019-03-17T05:55:43.858Z,10.78
2019-03-17T05:56:43.870Z,10.86
2019-03-17T05:57:43.953Z,10.81
2019-03-17T05:58:43.900Z,10.79
2019-03-17T05:59:43.909Z,10.76
2019-03-17T06:00:43.927Z,10.75
2019-03-17T06:01:43.924Z,10.78
2019-03-17T06:02:43.950Z,10.71
2019-03-17T06:03:43.969Z,10.68
2019-03-17T06:04:43.972Z,10.63
2019-03-17T06:05:43.991Z,10.57
2019-03-17T06:06:43.997Z,10.57
2019-03-17T06:07:44.006Z,10.61
2019-03-17T06:08:44.023Z,10.51
2019-03-17T06:09:44.108Z,10.40
2019-03-17T06:10:44.047Z,10.44
2019-03-17T06:11:44.075Z,10.31
2019-03-17T06:12:44.080Z,10.33
2019-03-17T06:13:44.090Z,10.34
2019-03-17T06:14:44.117Z,10.28
2019-03-17T06:15:44.123Z,10.19
2019-03-17T06:16:44.125Z,10.31
2019-03-17T06:17:44.142Z,10.20
2019-03-17T06:18:44.154Z,10.31
2019-03-17T06:19:44.162Z,10.30
2019-03-17T06:20:44.174Z,10.28
2019-03-17T06:21:44.193Z,10.26
2019-03-17T06:22:44.204Z,10.25
2019-03-17T06:23:44.215Z,10.28
2019-03-17T06:24:44.228Z,10.23
2019-03-17T06:25:44.242Z,10.15
2019-03-17T06:26:44.252Z,10.15
2019-03-17T06:27:44.270Z,10.09
2019-03-17T06:28:44.280Z,10.15
2019-03-17T06:29:44.300Z,10.09
2019-03-17T06:30:44.310Z,10.04
2019-03-17T06:31:44.315Z,9.98
2019-03-17T06:32:44.332Z,9.99
2019-03-17T06:33:44.348Z,9.99
2019-03-17T06:34:44.355Z,9.95
2019-03-17T06:35:44.372Z,9.91
2019-03-17T06:36:44.380Z,9.92
2019-03-17T06:37:44.402Z,9.83
2019-03-17T06:38:44.408Z,9.91
2019-03-17T06:39:44.419Z,9.87
2019-03-17T06:40:44.428Z,9.76
2019-03-17T06:41:44.451Z,9.82
2019-03-17T06:42:44.455Z,9.84
2019-03-17T06:43:44.469Z,9.77
2019-03-17T06:44:44.481Z,9.80
2019-03-17T06:45:44.498Z,9.76
2019-03-17T06:46:44.507Z,9.76
2019-03-17T06:47:44.516Z,9.76
2019-03-17T06:48:44.534Z,9.76
2019-03-17T06:49:44.543Z,9.73
2019-03-17T06:50:44.557Z,9.65
2019-03-17T06:51:44.565Z,9.68
2019-03-17T06:52:44.583Z,9.65
2019-03-17T06:53:55.780Z,9.68
2019-03-17T06:54:44.605Z,9.69
2019-03-17T06:55:44.613Z,9.68
2019-03-17T06:56:44.639Z,9.73
2019-03-17T06:57:44.648Z,9.69
2019-03-17T06:58:44.751Z,9.72
2019-03-17T06:59:44.666Z,9.66
2019-03-17T07:00:44.683Z,9.65
2019-03-17T07:01:44.691Z,9.69
2019-03-17T07:02:44.701Z,9.64
2019-03-17T07:03:44.713Z,9.73
2019-03-17T07:04:44.731Z,9.69
2019-03-17T07:05:44.745Z,9.68
2019-03-17T07:06:44.755Z,9.69
2019-03-17T07:07:44.978Z,9.69
2019-03-17T07:08:44.777Z,9.56
2019-03-17T07:09:44.791Z,9.69
2019-03-17T07:10:44.803Z,9.68
2019-03-17T07:11:44.815Z,9.68
2019-03-17T07:12:44.829Z,9.62
2019-03-17T07:13:44.842Z,9.69
2019-03-17T07:14:44.850Z,9.66
2019-03-17T07:15:44.870Z,9.66
2019-03-17T07:16:44.888Z,9.73
2019-03-17T07:17:44.892Z,9.72
2019-03-17T07:18:44.909Z,9.62
2019-03-17T07:19:44.917Z,9.59
2019-03-17T07:20:44.927Z,9.62
2019-03-17T07:21:44.941Z,9.61
2019-03-17T07:22:44.950Z,9.54
2019-03-17T07:23:44.967Z,9.55
2019-03-17T07:24:44.980Z,9.56
2019-03-17T07:25:45.062Z,9.59
2019-03-17T07:26:45.006Z,9.59
2019-03-17T07:27:45.017Z,9.54
2019-03-17T07:28:45.027Z,9.59
2019-03-17T07:29:45.038Z,9.56
2019-03-17T07:30:45.055Z,9.59
2019-03-17T07:31:45.066Z,9.51
2019-03-17T07:32:45.157Z,9.59
2019-03-17T07:33:45.091Z,9.59
2019-03-17T07:34:45.174Z,9.56
2019-03-17T07:35:46.352Z,9.54
2019-03-17T07:36:45.126Z,9.72
2019-03-17T07:37:56.321Z,9.64
2019-03-17T07:38:45.156Z,9.61
2019-03-17T07:39:45.167Z,9.62
2019-03-17T07:40:45.175Z,9.74
2019-03-17T07:41:45.191Z,9.68
2019-03-17T07:42:45.201Z,9.66
2019-03-17T07:43:45.213Z,9.68
2019-03-17T07:44:45.227Z,9.66
2019-03-17T07:45:45.246Z,9.55
2019-03-17T07:46:45.250Z,9.66
2019-03-17T07:47:45.263Z,9.66
2019-03-17T07:48:45.280Z,9.73
2019-03-17T07:49:45.290Z,9.69
2019-03-17T07:50:45.299Z,9.55
2019-03-17T07:51:45.322Z,9.62
2019-03-17T07:52:45.325Z,9.50
2019-03-17T07:53:45.344Z,9.48
2019-03-17T07:54:45.348Z,9.40
2019-03-17T07:55:45.366Z,9.28
2019-03-17T07:56:45.378Z,9.19
2019-03-17T07:57:45.388Z,9.13
2019-03-17T07:58:45.400Z,9.04
2019-03-17T07:59:45.418Z,8.99
2019-03-17T08:00:45.433Z,8.95
2019-03-17T08:01:45.439Z,9.02
2019-03-17T08:02:45.447Z,9.00
2019-03-17T08:03:45.463Z,8.95
2019-03-17T08:04:46.311Z,8.99
2019-03-17T08:05:45.489Z,9.00
2019-03-17T08:06:45.501Z,9.03
2019-03-17T08:07:45.513Z,8.99
2019-03-17T08:08:45.738Z,9.03
2019-03-17T08:09:45.538Z,8.97
2019-03-17T08:10:45.560Z,9.06
2019-03-17T08:11:45.564Z,9.00
2019-03-17T08:12:45.633Z,8.99
2019-03-17T08:13:45.587Z,9.03
2019-03-17T08:14:45.597Z,9.02
2019-03-17T08:15:45.614Z,9.00
2019-03-17T08:16:45.625Z,8.95
2019-03-17T08:17:45.635Z,9.03
2019-03-17T08:18:45.657Z,9.08
2019-03-17T08:19:45.653Z,9.10
2019-03-17T08:20:45.669Z,9.18
2019-03-17T08:21:45.684Z,9.22
2019-03-17T08:22:45.706Z,9.10
2019-03-17T08:23:45.705Z,9.08
2019-03-17T08:24:45.715Z,9.06
2019-03-17T08:25:45.732Z,9.04
2019-03-17T08:26:45.741Z,9.10
2019-03-17T08:27:45.756Z,9.00
2019-03-17T08:28:45.763Z,9.18
2019-03-17T08:29:45.777Z,9.06
2019-03-17T08:30:53.047Z,8.95
2019-03-17T08:31:45.809Z,8.95
2019-03-17T08:32:45.818Z,8.97
2019-03-17T08:33:45.831Z,8.87
2019-03-17T08:34:45.839Z,8.89
2019-03-17T08:35:45.858Z,9.00
2019-03-17T08:36:45.862Z,9.02
2019-03-17T08:37:45.877Z,9.02
2019-03-17T08:38:45.891Z,8.99
2019-03-17T08:39:45.899Z,8.91
2019-03-17T08:40:45.918Z,8.87
2019-03-17T08:41:45.928Z,8.97
2019-03-17T08:42:45.936Z,9.02
2019-03-17T08:43:54.175Z,9.02
2019-03-17T08:44:45.962Z,9.02
2019-03-17T08:45:45.971Z,8.95
2019-03-17T08:46:45.983Z,8.97
2019-03-17T08:47:57.178Z,8.95
2019-03-17T08:48:46.012Z,8.99
2019-03-17T08:49:46.037Z,8.95
2019-03-17T08:50:46.035Z,9.00
2019-03-17T08:51:46.041Z,9.06
2019-03-17T08:52:46.063Z,9.18
2019-03-17T08:53:46.163Z,9.19
2019-03-17T08:54:46.086Z,9.02
2019-03-17T08:55:46.115Z,9.00
2019-03-17T08:56:46.111Z,9.02
2019-03-17T08:57:46.132Z,9.18
2019-03-17T08:58:46.134Z,9.10
2019-03-17T08:59:46.157Z,9.13
2019-03-17T09:00:46.159Z,9.10
2019-03-17T09:01:47.622Z,9.14
2019-03-17T09:02:46.181Z,9.10
2019-03-17T09:03:46.199Z,9.10
2019-03-17T09:04:46.207Z,9.02
2019-03-17T09:05:46.220Z,8.88
2019-03-17T09:06:46.228Z,9.00
2019-03-17T09:07:46.336Z,8.87
2019-03-17T09:08:46.260Z,8.84
2019-03-17T09:09:46.269Z,8.91
2019-03-17T09:10:46.281Z,9.02
2019-03-17T09:11:46.299Z,8.99
2019-03-17T09:12:46.305Z,9.00
2019-03-17T09:13:46.318Z,9.19
2019-03-17T09:14:46.331Z,9.06
2019-03-17T09:15:46.339Z,8.99
2019-03-17T09:16:46.359Z,9.14
2019-03-17T09:17:46.365Z,9.06
2019-03-17T09:18:46.389Z,9.08
2019-03-17T09:19:46.393Z,9.14
2019-03-17T09:20:46.409Z,9.11
2019-03-17T09:21:46.417Z,9.14
2019-03-17T09:22:46.427Z,9.04
2019-03-17T09:23:46.438Z,9.10
2019-03-17T09:24:46.457Z,9.11
2019-03-17T09:25:46.469Z,9.18
2019-03-17T09:26:46.478Z,9.04
2019-03-17T09:27:46.493Z,9.06
2019-03-17T09:28:46.503Z,9.14
2019-03-17T09:29:46.521Z,9.14
2019-03-17T09:30:46.529Z,9.26
2019-03-17T09:31:46.547Z,9.25
2019-03-17T09:32:46.544Z,9.40
2019-03-17T09:33:46.565Z,9.40
2019-03-17T09:34:46.661Z,9.48
2019-03-17T09:35:46.591Z,9.39
2019-03-17T09:36:46.613Z,9.48
2019-03-17T09:37:46.620Z,9.61
2019-03-17T09:38:47.704Z,9.64
2019-03-17T09:39:46.641Z,9.68
2019-03-17T09:40:46.651Z,9.65
2019-03-17T09:41:46.667Z,9.65
2019-03-17T09:42:46.671Z,9.54
2019-03-17T09:43:46.689Z,9.59
2019-03-17T09:44:46.701Z,9.59
2019-03-17T09:45:46.735Z,9.59
2019-03-17T09:46:46.723Z,9.66
2019-03-17T09:47:46.750Z,9.65
2019-03-17T09:48:46.755Z,9.66
2019-03-17T09:49:46.763Z,9.72
2019-03-17T09:50:46.773Z,9.66
2019-03-17T09:51:46.787Z,9.68
2019-03-17T09:52:46.811Z,9.82
2019-03-17T09:53:46.817Z,9.86
2019-03-17T09:54:46.833Z,9.92
2019-03-17T09:55:46.833Z,10.01
2019-03-17T09:56:46.851Z,10.01
2019-03-17T09:57:46.875Z,10.10
2019-03-17T09:58:46.881Z,10.26
2019-03-17T09:59:46.901Z,10.26
2019-03-17T10:00:46.902Z,10.23
2019-03-17T10:01:46.918Z,10.37
2019-03-17T10:02:46.930Z,10.38
2019-03-17T10:03:46.946Z,10.34
2019-03-17T10:04:46.958Z,10.31
2019-03-17T10:05:49.444Z,10.30
2019-03-17T10:06:46.985Z,10.33
2019-03-17T10:07:46.996Z,10.34
2019-03-17T10:08:58.974Z,10.40
2019-03-17T10:09:47.024Z,10.31
2019-03-17T10:10:47.038Z,10.41
2019-03-17T10:11:47.048Z,10.54
2019-03-17T10:12:47.072Z,10.31
2019-03-17T10:13:47.076Z,10.20
2019-03-17T10:14:47.088Z,10.31
2019-03-17T10:15:47.107Z,10.30
2019-03-17T10:16:47.120Z,10.34
2019-03-17T10:17:47.132Z,10.44
2019-03-17T10:18:47.148Z,10.59
2019-03-17T10:19:47.158Z,10.57
2019-03-17T10:20:47.176Z,10.44
2019-03-17T10:21:47.188Z,10.51
2019-03-17T10:22:47.196Z,10.57
2019-03-17T10:23:47.218Z,10.42
2019-03-17T10:24:47.225Z,10.33
2019-03-17T10:25:47.241Z,10.38
2019-03-17T10:26:47.250Z,10.30
2019-03-17T10:27:47.267Z,10.33
2019-03-17T10:28:47.288Z,10.37
2019-03-17T10:29:47.297Z,10.40
2019-03-17T10:30:47.306Z,10.42
2019-03-17T10:31:47.322Z,10.44
2019-03-17T10:32:47.329Z,10.40
2019-03-17T10:33:47.351Z,10.31
2019-03-17T10:34:47.360Z,10.34
2019-03-17T10:35:47.374Z,10.26
2019-03-17T10:36:47.388Z,10.33
2019-03-17T10:37:47.405Z,10.31
2019-03-17T10:38:47.411Z,10.30
2019-03-17T10:39:47.428Z,10.33
2019-03-17T10:40:47.442Z,10.35
2019-03-17T10:41:47.460Z,10.34
2019-03-17T10:42:47.471Z,10.33
2019-03-17T10:43:47.481Z,10.33
2019-03-17T10:44:47.490Z,10.33
2019-03-17T10:45:47.507Z,10.16
2019-03-17T10:46:47.508Z,10.12
2019-03-17T10:47:47.534Z,10.16
2019-03-17T10:48:47.689Z,10.30
2019-03-17T10:49:47.558Z,10.20
2019-03-17T10:50:49.792Z,10.33
2019-03-17T10:51:47.585Z,10.31
2019-03-17T10:52:47.608Z,10.34
2019-03-17T10:53:47.614Z,10.31
2019-03-17T10:54:47.688Z,10.31
2019-03-17T10:55:47.634Z,10.37
2019-03-17T10:56:47.705Z,10.31
2019-03-17T10:57:47.670Z,10.38
2019-03-17T10:58:47.718Z,10.31
2019-03-17T10:59:47.690Z,10.38
2019-03-17T11:00:47.714Z,10.33
2019-03-17T11:01:47.716Z,10.41
2019-03-17T11:02:47.765Z,10.37
2019-03-17T11:03:47.745Z,10.33
2019-03-17T11:04:47.750Z,10.34
2019-03-17T11:05:47.766Z,10.59
2019-03-17T11:06:47.780Z,10.87
2019-03-17T11:07:47.791Z,11.27
2019-03-17T11:08:47.806Z,11.40
2019-03-17T11:09:47.823Z,11.44
2019-03-17T11:10:47.834Z,11.30
2019-03-17T11:11:47.853Z,11.17
2019-03-17T11:12:47.859Z,10.93
2019-03-17T11:13:47.884Z,10.81
2019-03-17T11:15:47.902Z,10.76
2019-03-17T11:16:47.918Z,10.76
2019-03-17T11:17:47.930Z,10.82
2019-03-17T11:18:47.951Z,10.69
2019-03-17T11:19:47.962Z,10.67
2019-03-17T11:20:47.970Z,10.69
2019-03-17T11:21:47.988Z,10.68
2019-03-17T11:22:48.001Z,10.69
2019-03-17T11:23:48.022Z,10.81
2019-03-17T11:24:48.033Z,10.74
2019-03-17T11:25:48.036Z,11.07
2019-03-17T11:26:48.062Z,11.57
2019-03-17T11:27:48.078Z,11.88
2019-03-17T11:28:48.091Z,12.29
2019-03-17T11:29:48.109Z,12.20
2019-03-17T11:30:48.117Z,11.99
2019-03-17T11:31:48.191Z,12.22
2019-03-17T11:32:48.168Z,12.28
2019-03-17T11:33:48.849Z,12.37
2019-03-17T11:34:48.572Z,12.27
2019-03-17T11:35:48.198Z,12.73
2019-03-17T11:36:48.217Z,13.19
2019-03-17T11:37:48.235Z,13.08
2019-03-17T11:38:48.244Z,12.49
2019-03-17T11:39:48.254Z,12.55
2019-03-17T11:40:48.283Z,12.85
2019-03-17T11:41:48.298Z,13.53
2019-03-17T11:42:49.857Z,13.46
2019-03-17T11:43:48.619Z,13.72
2019-03-17T11:44:48.340Z,13.81
2019-03-17T11:45:48.365Z,14.08
2019-03-17T11:46:48.375Z,14.15
2019-03-17T11:47:48.395Z,14.03
2019-03-17T11:48:48.407Z,13.68
2019-03-17T11:49:48.432Z,13.93
2019-03-17T11:50:48.472Z,14.17
2019-03-17T11:51:48.467Z,14.25
2019-03-17T11:52:48.484Z,14.36
2019-03-17T11:53:48.502Z,14.81
2019-03-17T11:54:48.520Z,14.23
2019-03-17T11:55:48.530Z,12.97
2019-03-17T11:56:48.551Z,12.47
2019-03-17T11:57:48.570Z,12.31
2019-03-17T11:58:48.586Z,11.94
2019-03-17T11:59:48.600Z,11.73
2019-03-17T12:00:48.628Z,11.77
2019-03-17T12:01:48.640Z,11.72
2019-03-17T12:02:48.665Z,12.03
2019-03-17T12:03:48.682Z,12.35
2019-03-17T12:04:48.691Z,11.95
2019-03-17T12:05:48.709Z,11.66
2019-03-17T12:06:48.793Z,11.55
2019-03-17T12:07:48.742Z,11.37
2019-03-17T12:08:48.758Z,11.69
2019-03-17T12:09:50.504Z,12.47
2019-03-17T12:10:48.785Z,13.20
2019-03-17T12:11:48.811Z,12.94
2019-03-17T12:12:48.826Z,12.94
2019-03-17T12:13:48.836Z,12.22
2019-03-17T12:14:48.858Z,11.91
2019-03-17T12:15:48.868Z,12.45
2019-03-17T12:16:48.891Z,11.77
2019-03-17T12:17:48.906Z,11.33
2019-03-17T12:18:48.922Z,11.17
2019-03-17T12:19:48.945Z,11.25
2019-03-17T12:20:48.954Z,11.41
2019-03-17T12:21:48.973Z,11.78
2019-03-17T12:22:48.986Z,12.00
2019-03-17T12:23:48.996Z,12.79
2019-03-17T12:24:49.016Z,13.22
2019-03-17T12:25:49.037Z,12.47
2019-03-17T12:26:49.051Z,12.04
2019-03-17T12:27:49.066Z,11.73
2019-03-17T12:28:49.080Z,11.69
2019-03-17T12:29:49.097Z,11.66
2019-03-17T12:30:49.148Z,11.66
2019-03-17T12:31:49.134Z,11.57
2019-03-17T12:32:49.147Z,11.57
2019-03-17T12:33:49.160Z,11.68
2019-03-17T12:34:49.172Z,11.94
2019-03-17T12:35:49.191Z,12.03
2019-03-17T12:36:49.206Z,12.95
2019-03-17T12:37:49.223Z,13.12
2019-03-17T12:38:49.241Z,12.40
2019-03-17T12:40:01.641Z,12.07
2019-03-17T12:40:49.268Z,12.27
2019-03-17T12:41:49.282Z,11.99
2019-03-17T12:42:49.315Z,11.70
2019-03-17T12:43:49.314Z,11.51
2019-03-17T12:44:49.333Z,11.40
2019-03-17T12:45:49.345Z,11.40
2019-03-17T12:46:49.360Z,11.44
2019-03-17T12:47:49.379Z,11.44
2019-03-17T12:48:49.389Z,11.19
2019-03-17T12:49:49.408Z,11.23
2019-03-17T12:50:49.422Z,11.12
2019-03-17T12:51:49.438Z,11.08
2019-03-17T12:52:49.455Z,11.19
2019-03-17T12:53:49.468Z,11.30
2019-03-17T12:54:49.483Z,12.31
2019-03-17T12:55:49.496Z,13.04
2019-03-17T12:56:49.512Z,13.33
2019-03-17T12:57:49.524Z,13.56
2019-03-17T12:58:49.528Z,13.68
2019-03-17T12:59:49.554Z,14.23
2019-03-17T13:00:49.676Z,14.77